Terminal Aerodrome Forecast
Issued by NWS Wilmington, NC

Home | Current Version | Previous Version | Text Only | Print | Product List | Glossary On
Versions: 1 2 3 4 5 6 7 8 9 10 11 12 13 14
921
FTUS42 KILM 281725
TAFMYR
TAF
KMYR 281725Z 2818/2918 16014KT P6SM SCT030
     FM290000 18007KT P6SM FEW120 BKN200
     FM291500 20012KT P6SM BKN200=

USA.gov is the U.S. government's official web portal to all federal, state and local government web resources and services.